sensor_id;sensor_type;location;lat;lon;timestamp;temperature;humidity
22682;DHT22;11508;50.856;4.380;2024-02-16T00:01:01;14.80;99.90
22682;DHT22;11508;50.856;4.380;2024-02-16T00:03:27;14.80;99.90
22682;DHT22;11508;50.856;4.380;2024-02-16T00:05:53;14.70;99.90
22682;DHT22;11508;50.856;4.380;2024-02-16T00:08:19;14.60;99.90
22682;DHT22;11508;50.856;4.380;2024-02-16T00:10:48;14.70;99.90
22682;DHT22;11508;50.856;4.380;2024-02-16T00:13:14;14.60;99.90
22682;DHT22;11508;50.856;4.380;2024-02-16T00:15:41;14.50;99.90
22682;DHT22;11508;50.856;4.380;2024-02-16T00:18:07;14.50;99.90
22682;DHT22;11508;50.856;4.380;2024-02-16T00:20:33;14.50;99.90
22682;DHT22;11508;50.856;4.380;2024-02-16T00:22:59;14.60;99.90
22682;DHT22;11508;50.856;4.380;2024-02-16T00:25:25;14.50;99.90
22682;DHT22;11508;50.856;4.380;2024-02-16T00:27:51;14.60;99.90
22682;DHT22;11508;50.856;4.380;2024-02-16T00:30:19;14.50;99.90
22682;DHT22;11508;50.856;4.380;2024-02-16T00:32:45;14.50;99.90
22682;DHT22;11508;50.856;4.380;2024-02-16T00:35:12;14.60;99.90
22682;DHT22;11508;50.856;4.380;2024-02-16T00:37:37;14.50;99.90
22682;DHT22;11508;50.856;4.380;2024-02-16T00:40:04;14.50;99.90
22682;DHT22;11508;50.856;4.380;2024-02-16T00:42:31;14.50;99.90
22682;DHT22;11508;50.856;4.380;2024-02-16T00:44:57;14.50;99.90
22682;DHT22;11508;50.856;4.380;2024-02-16T00:47:26;14.50;99.90
22682;DHT22;11508;50.856;4.380;2024-02-16T00:49:52;14.50;99.90
22682;DHT22;11508;50.856;4.380;2024-02-16T00:52:18;14.50;99.90
22682;DHT22;11508;50.856;4.380;2024-02-16T00:54:44;14.60;99.90
22682;DHT22;11508;50.856;4.380;2024-02-16T00:57:10;14.60;99.90
22682;DHT22;11508;50.856;4.380;2024-02-16T00:59:36;14.50;99.90
22682;DHT22;11508;50.856;4.380;2024-02-16T01:02:02;14.40;1.00
22682;DHT22;11508;50.856;4.380;2024-02-16T01:04:27;14.40;1.00
22682;DHT22;11508;50.856;4.380;2024-02-16T01:06:53;14.40;1.00
22682;DHT22;11508;50.856;4.380;2024-02-16T01:09:19;14.40;1.00
22682;DHT22;11508;50.856;4.380;2024-02-16T01:11:44;14.40;1.00
22682;DHT22;11508;50.856;4.380;2024-02-16T01:14:10;14.40;1.00
22682;DHT22;11508;50.856;4.380;2024-02-16T01:16:35;14.40;1.00
22682;DHT22;11508;50.856;4.380;2024-02-16T01:19:01;14.30;1.00
22682;DHT22;11508;50.856;4.380;2024-02-16T01:21:27;14.40;1.00
22682;DHT22;11508;50.856;4.380;2024-02-16T01:23:53;14.30;1.00
22682;DHT22;11508;50.856;4.380;2024-02-16T01:26:18;14.30;1.00
22682;DHT22;11508;50.856;4.380;2024-02-16T01:28:44;14.30;1.00
22682;DHT22;11508;50.856;4.380;2024-02-16T01:31:10;14.40;1.00
22682;DHT22;11508;50.856;4.380;2024-02-16T01:33:36;14.40;1.00
22682;DHT22;11508;50.856;4.380;2024-02-16T01:36:03;14.40;1.00
22682;DHT22;11508;50.856;4.380;2024-02-16T01:38:29;14.50;1.00
22682;DHT22;11508;50.856;4.380;2024-02-16T01:40:54;14.50;1.00
22682;DHT22;11508;50.856;4.380;2024-02-16T01:43:21;14.40;1.00
22682;DHT22;11508;50.856;4.380;2024-02-16T01:45:47;14.60;1.00
22682;DHT22;11508;50.856;4.380;2024-02-16T01:48:14;14.50;1.00
22682;DHT22;11508;50.856;4.380;2024-02-16T01:50:43;14.50;1.00
22682;DHT22;11508;50.856;4.380;2024-02-16T01:53:11;14.40;1.00
22682;DHT22;11508;50.856;4.380;2024-02-16T01:55:38;14.40;1.00
22682;DHT22;11508;50.856;4.380;2024-02-16T01:58:04;14.40;1.00
22682;DHT22;11508;50.856;4.380;2024-02-16T02:00:30;14.40;6.20
22682;DHT22;11508;50.856;4.380;2024-02-16T02:02:57;14.50;1.00
22682;DHT22;11508;50.856;4.380;2024-02-16T02:05:23;14.40;1.00
22682;DHT22;11508;50.856;4.380;2024-02-16T02:07:49;14.50;1.00
22682;DHT22;11508;50.856;4.380;2024-02-16T02:10:15;14.40;1.00
22682;DHT22;11508;50.856;4.380;2024-02-16T02:12:42;14.40;25.10
22682;DHT22;11508;50.856;4.380;2024-02-16T02:15:08;14.50;23.10
22682;DHT22;11508;50.856;4.380;2024-02-16T02:17:35;14.40;45.20
22682;DHT22;11508;50.856;4.380;2024-02-16T02:20:01;14.50;86.50
22682;DHT22;11508;50.856;4.380;2024-02-16T02:22:28;14.50;44.60
22682;DHT22;11508;50.856;4.380;2024-02-16T02:24:53;14.50;41.50
22682;DHT22;11508;50.856;4.380;2024-02-16T02:27:20;14.50;64.60
22682;DHT22;11508;50.856;4.380;2024-02-16T02:29:46;14.40;99.90
22682;DHT22;11508;50.856;4.380;2024-02-16T02:32:12;14.40;99.90
22682;DHT22;11508;50.856;4.380;2024-02-16T02:34:38;14.50;99.90
22682;DHT22;11508;50.856;4.380;2024-02-16T02:37:05;14.50;99.90
22682;DHT22;11508;50.856;4.380;2024-02-16T02:39:31;14.50;99.90
22682;DHT22;11508;50.856;4.380;2024-02-16T02:41:57;14.50;99.90
22682;DHT22;11508;50.856;4.380;2024-02-16T02:44:24;14.50;99.90
22682;DHT22;11508;50.856;4.380;2024-02-16T02:46:51;14.50;99.90
22682;DHT22;11508;50.856;4.380;2024-02-16T02:49:17;14.60;99.90
22682;DHT22;11508;50.856;4.380;2024-02-16T02:51:43;14.60;99.90
22682;DHT22;11508;50.856;4.380;2024-02-16T02:54:09;14.70;99.90
22682;DHT22;11508;50.856;4.380;2024-02-16T02:56:36;14.70;99.90
22682;DHT22;11508;50.856;4.380;2024-02-16T02:59:02;14.60;99.90
22682;DHT22;11508;50.856;4.380;2024-02-16T03:01:27;14.70;99.90
22682;DHT22;11508;50.856;4.380;2024-02-16T03:03:53;14.80;99.90
22682;DHT22;11508;50.856;4.380;2024-02-16T03:06:20;14.70;99.90
22682;DHT22;11508;50.856;4.380;2024-02-16T03:08:46;14.80;99.90
22682;DHT22;11508;50.856;4.380;2024-02-16T03:11:13;14.80;99.90
22682;DHT22;11508;50.856;4.380;2024-02-16T03:13:38;14.80;99.90
22682;DHT22;11508;50.856;4.380;2024-02-16T03:16:05;14.80;99.90
22682;DHT22;11508;50.856;4.380;2024-02-16T03:18:32;14.70;99.90
22682;DHT22;11508;50.856;4.380;2024-02-16T03:20:57;14.70;99.90
22682;DHT22;11508;50.856;4.380;2024-02-16T03:23:23;14.70;99.90
22682;DHT22;11508;50.856;4.380;2024-02-16T03:25:49;14.60;99.90
22682;DHT22;11508;50.856;4.380;2024-02-16T03:28:15;14.60;99.90
22682;DHT22;11508;50.856;4.380;2024-02-16T03:30:42;14.60;99.90
22682;DHT22;11508;50.856;4.380;2024-02-16T03:33:08;14.60;99.90
22682;DHT22;11508;50.856;4.380;2024-02-16T03:35:34;14.50;99.90
22682;DHT22;11508;50.856;4.380;2024-02-16T03:38:01;14.50;99.90
22682;DHT22;11508;50.856;4.380;2024-02-16T03:40:28;14.50;1.00
22682;DHT22;11508;50.856;4.380;2024-02-16T03:42:54;14.50;1.00
22682;DHT22;11508;50.856;4.380;2024-02-16T03:45:20;14.50;1.00
22682;DHT22;11508;50.856;4.380;2024-02-16T03:47:46;14.50;1.00
22682;DHT22;11508;50.856;4.380;2024-02-16T03:50:15;14.40;28.80
22682;DHT22;11508;50.856;4.380;2024-02-16T03:52:41;14.50;92.90
22682;DHT22;11508;50.856;4.380;2024-02-16T03:55:08;14.60;1.00
22682;DHT22;11508;50.856;4.380;2024-02-16T03:57:33;14.50;43.90
22682;DHT22;11508;50.856;4.380;2024-02-16T03:59:59;14.50;80.90
22682;DHT22;11508;50.856;4.380;2024-02-16T04:02:25;14.50;99.90
22682;DHT22;11508;50.856;4.380;2024-02-16T04:04:51;14.60;99.90
22682;DHT22;11508;50.856;4.380;2024-02-16T04:07:17;14.60;99.90
22682;DHT22;11508;50.856;4.380;2024-02-16T04:09:43;14.50;99.90
22682;DHT22;11508;50.856;4.380;2024-02-16T04:12:08;14.60;99.90
22682;DHT22;11508;50.856;4.380;2024-02-16T04:14:35;14.50;99.90
22682;DHT22;11508;50.856;4.380;2024-02-16T04:17:01;14.60;99.90
22682;DHT22;11508;50.856;4.380;2024-02-16T04:19:27;14.70;99.90
22682;DHT22;11508;50.856;4.380;2024-02-16T04:21:52;14.70;96.70
22682;DHT22;11508;50.856;4.380;2024-02-16T04:24:18;14.70;90.50
22682;DHT22;11508;50.856;4.380;2024-02-16T04:26:44;14.70;99.90
22682;DHT22;11508;50.856;4.380;2024-02-16T04:29:10;14.70;99.90
22682;DHT22;11508;50.856;4.380;2024-02-16T04:31:39;14.80;99.90
22682;DHT22;11508;50.856;4.380;2024-02-16T04:34:05;14.80;99.90
22682;DHT22;11508;50.856;4.380;2024-02-16T04:36:31;14.80;99.90
22682;DHT22;11508;50.856;4.380;2024-02-16T04:38:57;14.80;99.90
22682;DHT22;11508;50.856;4.380;2024-02-16T04:41:23;14.70;99.90
22682;DHT22;11508;50.856;4.380;2024-02-16T04:43:48;14.70;99.90
22682;DHT22;11508;50.856;4.380;2024-02-16T04:46:17;14.70;99.90
22682;DHT22;11508;50.856;4.380;2024-02-16T04:48:43;14.80;99.90
22682;DHT22;11508;50.856;4.380;2024-02-16T04:51:10;14.80;99.90
22682;DHT22;11508;50.856;4.380;2024-02-16T04:53:36;14.80;99.90
22682;DHT22;11508;50.856;4.380;2024-02-16T04:56:02;14.70;99.90
22682;DHT22;11508;50.856;4.380;2024-02-16T04:58:28;14.80;99.90
22682;DHT22;11508;50.856;4.380;2024-02-16T05:00:55;14.80;99.90
22682;DHT22;11508;50.856;4.380;2024-02-16T05:03:20;14.80;99.90
22682;DHT22;11508;50.856;4.380;2024-02-16T05:05:46;14.80;99.90
22682;DHT22;11508;50.856;4.380;2024-02-16T05:08:12;14.90;99.90
22682;DHT22;11508;50.856;4.380;2024-02-16T05:10:38;14.90;1.00
22682;DHT22;11508;50.856;4.380;2024-02-16T05:13:04;14.90;1.00
22682;DHT22;11508;50.856;4.380;2024-02-16T05:15:30;14.90;1.00
22682;DHT22;11508;50.856;4.380;2024-02-16T05:17:56;14.80;1.00
22682;DHT22;11508;50.856;4.380;2024-02-16T05:20:23;14.90;1.00
22682;DHT22;11508;50.856;4.380;2024-02-16T05:22:49;14.80;1.00
22682;DHT22;11508;50.856;4.380;2024-02-16T05:25:18;14.90;1.00
22682;DHT22;11508;50.856;4.380;2024-02-16T05:27:45;15.00;1.00
22682;DHT22;11508;50.856;4.380;2024-02-16T05:30:12;14.90;1.00
22682;DHT22;11508;50.856;4.380;2024-02-16T05:32:40;14.90;1.00
22682;DHT22;11508;50.856;4.380;2024-02-16T05:35:07;14.90;1.00
22682;DHT22;11508;50.856;4.380;2024-02-16T05:37:44;15.00;1.00
22682;DHT22;11508;50.856;4.380;2024-02-16T05:40:13;15.00;1.00
22682;DHT22;11508;50.856;4.380;2024-02-16T05:42:51;14.90;39.20
22682;DHT22;11508;50.856;4.380;2024-02-16T05:45:18;15.00;94.60
22682;DHT22;11508;50.856;4.380;2024-02-16T05:47:45;15.00;35.50
22682;DHT22;11508;50.856;4.380;2024-02-16T05:50:11;15.00;85.10
22682;DHT22;11508;50.856;4.380;2024-02-16T05:52:38;15.00;99.90
22682;DHT22;11508;50.856;4.380;2024-02-16T05:55:08;14.90;99.90
22682;DHT22;11508;50.856;4.380;2024-02-16T05:57:34;15.00;99.90
22682;DHT22;11508;50.856;4.380;2024-02-16T06:00:00;15.00;99.90
22682;DHT22;11508;50.856;4.380;2024-02-16T06:02:26;15.00;99.90
22682;DHT22;11508;50.856;4.380;2024-02-16T06:04:53;14.90;99.90
22682;DHT22;11508;50.856;4.380;2024-02-16T06:07:19;14.90;99.90
22682;DHT22;11508;50.856;4.380;2024-02-16T06:09:44;15.00;99.90
22682;DHT22;11508;50.856;4.380;2024-02-16T06:12:10;14.90;99.90
22682;DHT22;11508;50.856;4.380;2024-02-16T06:14:38;14.90;99.90
22682;DHT22;11508;50.856;4.380;2024-02-16T06:17:04;14.90;1.00
22682;DHT22;11508;50.856;4.380;2024-02-16T06:19:29;14.90;1.00
22682;DHT22;11508;50.856;4.380;2024-02-16T06:21:56;14.80;99.90
22682;DHT22;11508;50.856;4.380;2024-02-16T06:24:22;14.70;99.90
22682;DHT22;11508;50.856;4.380;2024-02-16T06:26:49;14.80;99.90
22682;DHT22;11508;50.856;4.380;2024-02-16T06:29:15;14.60;15.60
22682;DHT22;11508;50.856;4.380;2024-02-16T06:31:41;14.50;1.00
22682;DHT22;11508;50.856;4.380;2024-02-16T06:34:06;14.60;1.00
22682;DHT22;11508;50.856;4.380;2024-02-16T06:36:33;14.50;99.90
22682;DHT22;11508;50.856;4.380;2024-02-16T06:38:59;14.40;1.00
22682;DHT22;11508;50.856;4.380;2024-02-16T06:41:25;14.40;99.90
22682;DHT22;11508;50.856;4.380;2024-02-16T06:43:51;14.30;99.90
22682;DHT22;11508;50.856;4.380;2024-02-16T06:46:17;14.40;99.90
22682;DHT22;11508;50.856;4.380;2024-02-16T06:48:42;14.30;99.90
22682;DHT22;11508;50.856;4.380;2024-02-16T06:51:08;14.30;1.00
22682;DHT22;11508;50.856;4.380;2024-02-16T06:53:34;14.20;99.90
22682;DHT22;11508;50.856;4.380;2024-02-16T06:56:00;14.10;1.00
22682;DHT22;11508;50.856;4.380;2024-02-16T06:58:25;14.10;1.00
22682;DHT22;11508;50.856;4.380;2024-02-16T07:00:51;14.30;99.90
22682;DHT22;11508;50.856;4.380;2024-02-16T07:03:17;14.10;99.90
22682;DHT22;11508;50.856;4.380;2024-02-16T07:05:43;14.10;1.00
22682;DHT22;11508;50.856;4.380;2024-02-16T07:08:09;14.10;1.00
22682;DHT22;11508;50.856;4.380;2024-02-16T07:10:35;14.10;1.00
22682;DHT22;11508;50.856;4.380;2024-02-16T07:13:01;14.20;99.90
22682;DHT22;11508;50.856;4.380;2024-02-16T07:15:26;14.10;1.00
22682;DHT22;11508;50.856;4.380;2024-02-16T07:17:53;14.10;1.00
22682;DHT22;11508;50.856;4.380;2024-02-16T07:20:19;14.10;1.00
22682;DHT22;11508;50.856;4.380;2024-02-16T07:22:45;14.10;1.00
22682;DHT22;11508;50.856;4.380;2024-02-16T07:25:17;14.10;1.00
22682;DHT22;11508;50.856;4.380;2024-02-16T07:27:43;14.20;99.90
22682;DHT22;11508;50.856;4.380;2024-02-16T07:30:09;14.20;99.90
22682;DHT22;11508;50.856;4.380;2024-02-16T07:32:36;14.20;99.90
22682;DHT22;11508;50.856;4.380;2024-02-16T07:35:02;14.30;99.90
22682;DHT22;11508;50.856;4.380;2024-02-16T07:37:29;14.30;21.60
22682;DHT22;11508;50.856;4.380;2024-02-16T07:39:55;14.40;1.00
22682;DHT22;11508;50.856;4.380;2024-02-16T07:42:21;14.30;3.40
22682;DHT22;11508;50.856;4.380;2024-02-16T07:44:47;14.20;99.90
22682;DHT22;11508;50.856;4.380;2024-02-16T07:47:12;14.30;99.90
22682;DHT22;11508;50.856;4.380;2024-02-16T07:49:39;14.20;99.90
22682;DHT22;11508;50.856;4.380;2024-02-16T07:52:05;14.30;99.90
22682;DHT22;11508;50.856;4.380;2024-02-16T07:54:31;14.30;99.90
22682;DHT22;11508;50.856;4.380;2024-02-16T07:56:57;14.30;99.90
22682;DHT22;11508;50.856;4.380;2024-02-16T07:59:25;14.30;99.90
22682;DHT22;11508;50.856;4.380;2024-02-16T08:01:50;14.20;99.90
22682;DHT22;11508;50.856;4.380;2024-02-16T08:04:16;14.20;99.90
22682;DHT22;11508;50.856;4.380;2024-02-16T08:06:42;14.30;99.90
22682;DHT22;11508;50.856;4.380;2024-02-16T08:09:08;14.20;99.90
22682;DHT22;11508;50.856;4.380;2024-02-16T08:11:34;14.30;99.90
22682;DHT22;11508;50.856;4.380;2024-02-16T08:13:59;14.30;99.90
22682;DHT22;11508;50.856;4.380;2024-02-16T08:16:29;14.30;99.90
22682;DHT22;11508;50.856;4.380;2024-02-16T08:18:54;14.30;99.90
22682;DHT22;11508;50.856;4.380;2024-02-16T08:21:20;14.30;99.90
22682;DHT22;11508;50.856;4.380;2024-02-16T08:23:46;14.30;99.90
22682;DHT22;11508;50.856;4.380;2024-02-16T08:26:13;14.30;99.90
22682;DHT22;11508;50.856;4.380;2024-02-16T08:28:39;14.30;1.00
22682;DHT22;11508;50.856;4.380;2024-02-16T08:31:05;14.40;1.00
22682;DHT22;11508;50.856;4.380;2024-02-16T08:33:32;14.30;88.90
22682;DHT22;11508;50.856;4.380;2024-02-16T08:36:03;14.20;99.90
22682;DHT22;11508;50.856;4.380;2024-02-16T08:38:31;14.10;1.00
22682;DHT22;11508;50.856;4.380;2024-02-16T08:40:57;13.90;1.00
22682;DHT22;11508;50.856;4.380;2024-02-16T08:43:22;13.90;1.00
22682;DHT22;11508;50.856;4.380;2024-02-16T08:45:48;13.80;1.00
22682;DHT22;11508;50.856;4.380;2024-02-16T08:48:14;13.80;5.60
22682;DHT22;11508;50.856;4.380;2024-02-16T08:50:40;13.70;5.00
22682;DHT22;11508;50.856;4.380;2024-02-16T08:53:05;13.70;11.20
22682;DHT22;11508;50.856;4.380;2024-02-16T08:55:31;13.70;13.50
22682;DHT22;11508;50.856;4.380;2024-02-16T08:57:57;13.70;27.00
22682;DHT22;11508;50.856;4.380;2024-02-16T09:00:23;13.70;29.90
22682;DHT22;11508;50.856;4.380;2024-02-16T09:02:52;13.70;27.40
22682;DHT22;11508;50.856;4.380;2024-02-16T09:05:19;13.80;22.40
22682;DHT22;11508;50.856;4.380;2024-02-16T09:07:45;13.90;25.40
22682;DHT22;11508;50.856;4.380;2024-02-16T09:10:12;14.00;3.80
22682;DHT22;11508;50.856;4.380;2024-02-16T09:12:40;13.90;9.80
22682;DHT22;11508;50.856;4.380;2024-02-16T09:15:06;14.00;19.90
22682;DHT22;11508;50.856;4.380;2024-02-16T09:17:32;14.10;13.40
22682;DHT22;11508;50.856;4.380;2024-02-16T09:19:58;14.00;22.90
22682;DHT22;11508;50.856;4.380;2024-02-16T09:22:24;13.90;35.30
22682;DHT22;11508;50.856;4.380;2024-02-16T09:24:50;13.90;33.90
22682;DHT22;11508;50.856;4.380;2024-02-16T09:27:16;13.90;45.30
22682;DHT22;11508;50.856;4.380;2024-02-16T09:29:43;13.90;56.20
22682;DHT22;11508;50.856;4.380;2024-02-16T09:32:09;13.70;62.40
22682;DHT22;11508;50.856;4.380;2024-02-16T09:34:35;13.70;83.30
22682;DHT22;11508;50.856;4.380;2024-02-16T09:37:01;13.60;90.20
22682;DHT22;11508;50.856;4.380;2024-02-16T09:39:27;13.60;91.70
22682;DHT22;11508;50.856;4.380;2024-02-16T09:42:00;13.70;88.10
22682;DHT22;11508;50.856;4.380;2024-02-16T09:44:26;13.70;86.40
22682;DHT22;11508;50.856;4.380;2024-02-16T09:46:54;13.70;84.10
22682;DHT22;11508;50.856;4.380;2024-02-16T09:49:20;13.70;91.30
22682;DHT22;11508;50.856;4.380;2024-02-16T09:51:46;13.80;91.30
22682;DHT22;11508;50.856;4.380;2024-02-16T09:54:12;13.80;89.60
22682;DHT22;11508;50.856;4.380;2024-02-16T09:56:39;13.80;95.50
22682;DHT22;11508;50.856;4.380;2024-02-16T09:59:05;13.90;88.90
22682;DHT22;11508;50.856;4.380;2024-02-16T10:01:32;14.00;77.10
22682;DHT22;11508;50.856;4.380;2024-02-16T10:04:07;14.10;75.20
22682;DHT22;11508;50.856;4.380;2024-02-16T10:06:33;14.00;65.70
22682;DHT22;11508;50.856;4.380;2024-02-16T10:09:10;14.00;75.40
22682;DHT22;11508;50.856;4.380;2024-02-16T10:11:37;14.00;72.60
22682;DHT22;11508;50.856;4.380;2024-02-16T10:14:04;14.00;76.70
22682;DHT22;11508;50.856;4.380;2024-02-16T10:16:30;14.00;80.70
22682;DHT22;11508;50.856;4.380;2024-02-16T10:19:04;14.00;70.60
22682;DHT22;11508;50.856;4.380;2024-02-16T10:21:31;14.10;68.90
22682;DHT22;11508;50.856;4.380;2024-02-16T10:24:08;14.00;65.90
22682;DHT22;11508;50.856;4.380;2024-02-16T10:26:39;14.00;69.40
22682;DHT22;11508;50.856;4.380;2024-02-16T10:29:10;14.00;83.20
22682;DHT22;11508;50.856;4.380;2024-02-16T10:31:37;14.00;75.30
22682;DHT22;11508;50.856;4.380;2024-02-16T10:34:05;14.00;81.30
22682;DHT22;11508;50.856;4.380;2024-02-16T10:36:35;13.90;84.70
22682;DHT22;11508;50.856;4.380;2024-02-16T10:39:02;13.90;89.80
22682;DHT22;11508;50.856;4.380;2024-02-16T10:41:36;13.90;92.10
22682;DHT22;11508;50.856;4.380;2024-02-16T10:44:03;13.90;96.00
22682;DHT22;11508;50.856;4.380;2024-02-16T10:46:33;14.00;94.30
22682;DHT22;11508;50.856;4.380;2024-02-16T10:48:59;14.10;89.50
22682;DHT22;11508;50.856;4.380;2024-02-16T10:51:35;14.00;91.40
22682;DHT22;11508;50.856;4.380;2024-02-16T10:54:03;14.00;91.40
22682;DHT22;11508;50.856;4.380;2024-02-16T10:56:35;14.10;94.50
22682;DHT22;11508;50.856;4.380;2024-02-16T10:59:06;14.00;91.80
22682;DHT22;11508;50.856;4.380;2024-02-16T11:01:43;13.90;96.50
22682;DHT22;11508;50.856;4.380;2024-02-16T11:04:36;13.90;99.00
22682;DHT22;11508;50.856;4.380;2024-02-16T11:07:10;14.00;99.90
22682;DHT22;11508;50.856;4.380;2024-02-16T11:09:39;14.00;99.10
22682;DHT22;11508;50.856;4.380;2024-02-16T11:12:06;14.00;99.90
22682;DHT22;11508;50.856;4.380;2024-02-16T11:14:47;13.90;99.90
22682;DHT22;11508;50.856;4.380;2024-02-16T11:17:22;13.90;99.90
22682;DHT22;11508;50.856;4.380;2024-02-16T11:19:49;13.70;99.90
22682;DHT22;11508;50.856;4.380;2024-02-16T11:22:18;13.70;99.90
22682;DHT22;11508;50.856;4.380;2024-02-16T11:24:48;13.60;99.90
22682;DHT22;11508;50.856;4.380;2024-02-16T11:27:15;13.40;99.90
22682;DHT22;11508;50.856;4.380;2024-02-16T11:29:44;13.40;99.90
22682;DHT22;11508;50.856;4.380;2024-02-16T11:32:10;13.50;99.90
22682;DHT22;11508;50.856;4.380;2024-02-16T11:34:36;13.50;99.90
22682;DHT22;11508;50.856;4.380;2024-02-16T11:37:03;13.40;99.90
22682;DHT22;11508;50.856;4.380;2024-02-16T11:39:30;13.30;99.90
22682;DHT22;11508;50.856;4.380;2024-02-16T11:42:11;13.30;99.90
22682;DHT22;11508;50.856;4.380;2024-02-16T11:44:38;13.30;99.90
22682;DHT22;11508;50.856;4.380;2024-02-16T11:47:09;13.30;99.90
22682;DHT22;11508;50.856;4.380;2024-02-16T11:49:40;13.10;99.90
22682;DHT22;11508;50.856;4.380;2024-02-16T11:52:07;13.10;99.90
22682;DHT22;11508;50.856;4.380;2024-02-16T11:54:33;13.30;99.90
22682;DHT22;11508;50.856;4.380;2024-02-16T11:56:59;13.20;99.90
22682;DHT22;11508;50.856;4.380;2024-02-16T11:59:25;13.20;99.90
22682;DHT22;11508;50.856;4.380;2024-02-16T12:01:55;13.20;99.90
22682;DHT22;11508;50.856;4.380;2024-02-16T12:04:28;13.10;99.90
22682;DHT22;11508;50.856;4.380;2024-02-16T12:06:59;13.10;99.90
22682;DHT22;11508;50.856;4.380;2024-02-16T12:09:26;13.00;99.90
22682;DHT22;11508;50.856;4.380;2024-02-16T12:11:53;12.90;99.90
22682;DHT22;11508;50.856;4.380;2024-02-16T12:14:21;13.00;99.90
22682;DHT22;11508;50.856;4.380;2024-02-16T12:16:51;13.00;99.90
22682;DHT22;11508;50.856;4.380;2024-02-16T12:19:19;13.10;99.90
22682;DHT22;11508;50.856;4.380;2024-02-16T12:21:51;13.10;99.90
22682;DHT22;11508;50.856;4.380;2024-02-16T12:24:18;13.00;99.90
22682;DHT22;11508;50.856;4.380;2024-02-16T12:26:44;13.00;99.90
22682;DHT22;11508;50.856;4.380;2024-02-16T12:29:10;13.00;99.90
22682;DHT22;11508;50.856;4.380;2024-02-16T12:31:44;12.90;99.90
22682;DHT22;11508;50.856;4.380;2024-02-16T12:34:10;13.00;99.90
22682;DHT22;11508;50.856;4.380;2024-02-16T12:36:39;13.10;99.90
22682;DHT22;11508;50.856;4.380;2024-02-16T12:39:06;13.20;99.90
22682;DHT22;11508;50.856;4.380;2024-02-16T12:41:33;13.10;99.90
22682;DHT22;11508;50.856;4.380;2024-02-16T12:44:02;13.00;99.90
22682;DHT22;11508;50.856;4.380;2024-02-16T12:46:27;13.00;99.90
22682;DHT22;11508;50.856;4.380;2024-02-16T12:48:56;12.90;99.90
22682;DHT22;11508;50.856;4.380;2024-02-16T12:51:22;12.70;99.90
22682;DHT22;11508;50.856;4.380;2024-02-16T12:53:48;12.80;99.90
22682;DHT22;11508;50.856;4.380;2024-02-16T12:56:13;12.90;99.90
22682;DHT22;11508;50.856;4.380;2024-02-16T12:58:39;12.90;99.90
22682;DHT22;11508;50.856;4.380;2024-02-16T13:01:06;12.90;99.90
22682;DHT22;11508;50.856;4.380;2024-02-16T13:03:36;12.80;99.90
22682;DHT22;11508;50.856;4.380;2024-02-16T13:06:02;12.70;99.90
22682;DHT22;11508;50.856;4.380;2024-02-16T13:08:28;12.70;99.90
22682;DHT22;11508;50.856;4.380;2024-02-16T13:10:55;12.80;99.90
22682;DHT22;11508;50.856;4.380;2024-02-16T13:13:21;12.80;99.90
22682;DHT22;11508;50.856;4.380;2024-02-16T13:15:47;12.80;99.90
22682;DHT22;11508;50.856;4.380;2024-02-16T13:18:15;12.80;99.90
22682;DHT22;11508;50.856;4.380;2024-02-16T13:20:41;12.80;99.90
22682;DHT22;11508;50.856;4.380;2024-02-16T13:23:07;12.80;99.90
22682;DHT22;11508;50.856;4.380;2024-02-16T13:25:33;12.80;99.90
22682;DHT22;11508;50.856;4.380;2024-02-16T13:27:58;12.90;99.90
22682;DHT22;11508;50.856;4.380;2024-02-16T13:30:25;12.90;99.90
22682;DHT22;11508;50.856;4.380;2024-02-16T13:32:53;12.90;99.90
22682;DHT22;11508;50.856;4.380;2024-02-16T13:35:19;13.00;99.90
22682;DHT22;11508;50.856;4.380;2024-02-16T13:37:45;13.10;99.90
22682;DHT22;11508;50.856;4.380;2024-02-16T13:40:11;13.10;99.90
22682;DHT22;11508;50.856;4.380;2024-02-16T13:42:41;13.30;99.90
22682;DHT22;11508;50.856;4.380;2024-02-16T13:45:08;13.60;99.90
22682;DHT22;11508;50.856;4.380;2024-02-16T13:47:35;13.40;99.90
22682;DHT22;11508;50.856;4.380;2024-02-16T13:50:00;13.50;99.90
22682;DHT22;11508;50.856;4.380;2024-02-16T13:52:26;13.40;99.90
22682;DHT22;11508;50.856;4.380;2024-02-16T13:54:52;13.40;99.90
22682;DHT22;11508;50.856;4.380;2024-02-16T13:57:18;13.50;99.90
22682;DHT22;11508;50.856;4.380;2024-02-16T13:59:45;13.50;99.90
22682;DHT22;11508;50.856;4.380;2024-02-16T14:02:12;13.50;99.90
22682;DHT22;11508;50.856;4.380;2024-02-16T14:04:38;13.50;99.90
22682;DHT22;11508;50.856;4.380;2024-02-16T14:07:04;13.40;99.90
22682;DHT22;11508;50.856;4.380;2024-02-16T14:09:30;13.70;99.90
22682;DHT22;11508;50.856;4.380;2024-02-16T14:11:55;13.80;99.90
22682;DHT22;11508;50.856;4.380;2024-02-16T14:14:24;14.10;99.90
22682;DHT22;11508;50.856;4.380;2024-02-16T14:16:50;13.80;99.90
22682;DHT22;11508;50.856;4.380;2024-02-16T14:19:18;13.80;99.90
22682;DHT22;11508;50.856;4.380;2024-02-16T14:21:43;13.70;99.90
22682;DHT22;11508;50.856;4.380;2024-02-16T14:24:09;13.60;99.90
22682;DHT22;11508;50.856;4.380;2024-02-16T14:26:36;13.50;99.90
22682;DHT22;11508;50.856;4.380;2024-02-16T14:29:04;13.80;99.90
22682;DHT22;11508;50.856;4.380;2024-02-16T14:31:29;13.90;99.90
22682;DHT22;11508;50.856;4.380;2024-02-16T14:33:55;14.10;99.90
22682;DHT22;11508;50.856;4.380;2024-02-16T14:36:22;13.80;99.90
22682;DHT22;11508;50.856;4.380;2024-02-16T14:38:47;13.60;99.90
22682;DHT22;11508;50.856;4.380;2024-02-16T14:41:13;13.60;99.90
22682;DHT22;11508;50.856;4.380;2024-02-16T14:43:39;13.60;99.90
22682;DHT22;11508;50.856;4.380;2024-02-16T14:46:06;13.70;99.90
22682;DHT22;11508;50.856;4.380;2024-02-16T14:48:33;13.90;99.90
22682;DHT22;11508;50.856;4.380;2024-02-16T14:50:59;14.10;99.90
22682;DHT22;11508;50.856;4.380;2024-02-16T14:53:25;14.20;1.00
22682;DHT22;11508;50.856;4.380;2024-02-16T14:55:50;14.60;1.00
22682;DHT22;11508;50.856;4.380;2024-02-16T14:58:17;14.80;1.00
22682;DHT22;11508;50.856;4.380;2024-02-16T15:00:43;14.50;1.00
22682;DHT22;11508;50.856;4.380;2024-02-16T15:03:12;14.70;1.00
22682;DHT22;11508;50.856;4.380;2024-02-16T15:05:41;14.80;1.00
22682;DHT22;11508;50.856;4.380;2024-02-16T15:08:08;15.00;1.00
22682;DHT22;11508;50.856;4.380;2024-02-16T15:10:35;14.70;99.90
22682;DHT22;11508;50.856;4.380;2024-02-16T15:13:00;14.40;1.00
22682;DHT22;11508;50.856;4.380;2024-02-16T15:15:26;14.20;1.00
22682;DHT22;11508;50.856;4.380;2024-02-16T15:17:51;13.90;1.00
22682;DHT22;11508;50.856;4.380;2024-02-16T15:20:17;13.90;1.00
22682;DHT22;11508;50.856;4.380;2024-02-16T15:22:43;13.90;1.00
22682;DHT22;11508;50.856;4.380;2024-02-16T15:25:09;13.90;1.00
22682;DHT22;11508;50.856;4.380;2024-02-16T15:27:36;14.00;1.00
22682;DHT22;11508;50.856;4.380;2024-02-16T15:30:02;13.80;1.00
22682;DHT22;11508;50.856;4.380;2024-02-16T15:32:27;13.80;1.00